createdAt,value
2018-09-12T00:00:49.731Z,1.70
2018-09-12T00:03:18.082Z,1.43
2018-09-12T00:05:46.919Z,1.20
2018-09-12T00:08:15.348Z,1.50
2018-09-12T00:10:43.706Z,1.47
2018-09-12T00:13:12.183Z,1.67
2018-09-12T00:15:40.587Z,1.90
2018-09-12T00:18:08.896Z,1.83
2018-09-12T00:20:37.365Z,2.10
2018-09-12T00:23:05.913Z,1.50
2018-09-12T00:25:34.970Z,2.80
2018-09-12T00:28:03.321Z,1.57
2018-09-12T00:30:31.662Z,2.20
2018-09-12T00:33:00.186Z,1.70
2018-09-12T00:35:29.983Z,2.27
2018-09-12T00:37:58.336Z,1.83
2018-09-12T00:40:26.681Z,1.83
2018-09-12T00:42:54.992Z,2.60
2018-09-12T00:45:23.348Z,2.10
2018-09-12T00:47:51.939Z,2.23
2018-09-12T00:50:20.998Z,1.93
2018-09-12T00:52:49.447Z,1.97
2018-09-12T00:55:17.812Z,3.20
2018-09-12T00:57:46.151Z,3.20
2018-09-12T01:00:14.503Z,3.40
2018-09-12T01:02:43.421Z,3.07
2018-09-12T01:05:11.863Z,2.80
2018-09-12T01:07:40.563Z,2.40
2018-09-12T01:10:08.901Z,2.53
2018-09-12T01:12:37.285Z,1.30
2018-09-12T01:15:05.853Z,1.87
2018-09-12T01:17:34.217Z,1.77
2018-09-12T01:20:02.601Z,1.67
2018-09-12T01:22:30.985Z,1.97
2018-09-12T01:24:59.335Z,1.97
2018-09-12T01:27:27.769Z,1.43
2018-09-12T01:29:56.169Z,2.50
2018-09-12T01:32:24.519Z,1.50
2018-09-12T01:34:52.870Z,1.40
2018-09-12T01:37:21.191Z,1.80
2018-09-12T01:39:49.547Z,1.70
2018-09-12T01:42:17.908Z,2.10
2018-09-12T01:44:46.354Z,2.47
2018-09-12T01:47:14.713Z,2.40
2018-09-12T01:49:43.067Z,1.43
2018-09-12T01:52:11.409Z,1.77
2018-09-12T01:54:39.756Z,1.70
2018-09-12T01:57:08.099Z,2.27
2018-09-12T01:59:37.215Z,2.00
2018-09-12T02:02:05.579Z,1.53
2018-09-12T02:04:34.013Z,1.67
2018-09-12T02:07:02.361Z,1.80
2018-09-12T02:09:30.889Z,1.97
2018-09-12T02:11:59.713Z,1.67
2018-09-12T02:14:28.049Z,1.53
2018-09-12T02:16:56.503Z,1.83
2018-09-12T02:19:24.888Z,1.20
2018-09-12T02:21:53.247Z,1.67
2018-09-12T02:24:21.617Z,2.50
2018-09-12T02:26:49.995Z,2.00
2018-09-12T02:29:18.339Z,1.80
2018-09-12T02:31:46.739Z,1.90
2018-09-12T02:34:15.071Z,2.20
2018-09-12T02:36:43.457Z,1.60
2018-09-12T02:39:11.812Z,2.17
2018-09-12T02:41:40.170Z,2.67
2018-09-12T02:44:08.551Z,2.27
2018-09-12T02:46:36.879Z,2.93
2018-09-12T02:49:05.289Z,1.70
2018-09-12T02:51:33.628Z,2.33
2018-09-12T02:54:02.156Z,2.27
2018-09-12T02:56:30.579Z,3.03
2018-09-12T02:58:58.957Z,2.27
2018-09-12T03:01:27.322Z,2.23
2018-09-12T03:04:12.352Z,2.00
2018-09-12T03:06:40.759Z,1.73
2018-09-12T03:09:10.192Z,2.03
2018-09-12T03:11:38.532Z,1.60
2018-09-12T03:14:06.891Z,1.70
2018-09-12T03:16:35.213Z,1.80
2018-09-12T03:19:03.654Z,1.37
2018-09-12T03:21:32.945Z,1.43
2018-09-12T03:24:01.351Z,2.00
2018-09-12T03:26:30.443Z,2.30
2018-09-12T03:28:58.801Z,1.77
2018-09-12T03:31:27.210Z,1.60
2018-09-12T03:33:55.571Z,1.80
2018-09-12T03:36:23.972Z,1.67
2018-09-12T03:38:52.311Z,1.60
2018-09-12T03:41:20.639Z,1.77
2018-09-12T03:43:55.764Z,1.60
2018-09-12T03:46:24.110Z,2.03
2018-09-12T03:48:52.461Z,1.77
2018-09-12T03:51:20.817Z,1.97
2018-09-12T03:53:49.215Z,2.50
2018-09-12T03:56:17.719Z,2.40
2018-09-12T03:58:46.141Z,2.20
2018-09-12T04:01:14.517Z,1.97
2018-09-12T04:03:42.812Z,1.60
2018-09-12T04:06:11.868Z,2.50
2018-09-12T04:08:40.307Z,2.10
2018-09-12T04:11:08.681Z,2.47
2018-09-12T04:13:37.059Z,2.30
2018-09-12T04:16:05.429Z,2.00
2018-09-12T04:18:33.836Z,2.17
2018-09-12T04:21:02.312Z,2.30
2018-09-12T04:23:30.634Z,1.70
2018-09-12T04:25:58.979Z,1.93
2018-09-12T04:28:28.048Z,2.23
2018-09-12T04:30:56.408Z,2.00
2018-09-12T04:33:24.797Z,1.63
2018-09-12T04:35:53.164Z,1.83
2018-09-12T04:38:21.523Z,1.93
2018-09-12T04:40:49.847Z,2.10
2018-09-12T04:43:18.431Z,3.10
2018-09-12T04:45:46.811Z,3.03
2018-09-12T04:48:15.759Z,2.90
2018-09-12T04:50:44.140Z,2.10
2018-09-12T04:53:12.485Z,2.37
2018-09-12T04:55:40.836Z,1.77
2018-09-12T04:58:09.239Z,1.83
2018-09-12T05:00:37.574Z,2.37
2018-09-12T05:03:06.329Z,2.10
2018-09-12T05:05:34.666Z,2.53
2018-09-12T05:08:03.045Z,1.73
2018-09-12T05:10:31.401Z,1.90
2018-09-12T05:13:00.376Z,2.37
2018-09-12T05:15:28.750Z,2.17
2018-09-12T05:17:57.726Z,2.17
2018-09-12T05:20:26.026Z,2.23
2018-09-12T05:22:54.677Z,1.43
2018-09-12T05:25:23.042Z,1.40
2018-09-12T05:27:52.862Z,1.70
2018-09-12T05:30:21.678Z,1.97
2018-09-12T05:32:50.006Z,2.63
2018-09-12T05:35:18.430Z,2.23
2018-09-12T05:37:46.815Z,2.00
2018-09-12T05:40:15.890Z,2.60
2018-09-12T05:42:44.227Z,2.83
2018-09-12T05:45:12.582Z,1.63
2018-09-12T05:47:40.991Z,2.37
2018-09-12T05:50:09.407Z,2.10
2018-09-12T05:52:37.811Z,3.10
2018-09-12T05:55:06.217Z,3.30
2018-09-12T05:57:34.620Z,3.10
2018-09-12T06:00:09.773Z,3.30
2018-09-12T06:02:38.233Z,2.50
2018-09-12T06:05:06.917Z,3.37
2018-09-12T06:07:35.400Z,3.10
2018-09-12T06:10:03.779Z,3.20
2018-09-12T06:12:32.670Z,3.07
2018-09-12T06:15:01.658Z,2.13
2018-09-12T06:17:29.995Z,1.67
2018-09-12T06:19:58.480Z,2.77
2018-09-12T06:22:26.854Z,3.07
2018-09-12T06:24:55.182Z,3.57
2018-09-12T06:27:23.564Z,3.60
2018-09-12T06:29:51.929Z,3.13
2018-09-12T06:32:20.280Z,4.00
2018-09-12T06:34:48.666Z,3.17
2018-09-12T06:37:17.026Z,3.63
2018-09-12T06:39:45.370Z,4.10
2018-09-12T06:42:13.746Z,3.73
2018-09-12T06:44:42.137Z,3.50
2018-09-12T06:47:10.538Z,4.50
2018-09-12T06:49:38.922Z,4.57
2018-09-12T06:52:07.423Z,4.07
2018-09-12T06:54:35.937Z,4.17
2018-09-12T06:57:04.325Z,4.13
2018-09-12T06:59:33.451Z,4.03
2018-09-12T07:02:01.828Z,4.13
2018-09-12T07:04:30.165Z,4.00
2018-09-12T07:06:58.592Z,4.03
2018-09-12T07:09:27.037Z,3.23
2018-09-12T07:11:55.371Z,3.90
2018-09-12T07:14:23.752Z,3.77
2018-09-12T07:16:52.117Z,4.43
2018-09-12T07:19:20.539Z,3.17
2018-09-12T07:21:49.013Z,3.60
2018-09-12T07:24:17.435Z,3.83
2018-09-12T07:26:46.014Z,3.10
2018-09-12T07:29:14.421Z,3.50
2018-09-12T07:31:42.765Z,2.67
2018-09-12T07:34:11.145Z,3.27
2018-09-12T07:36:39.564Z,4.07
2018-09-12T07:39:09.292Z,4.50
2018-09-12T07:41:37.678Z,3.87
2018-09-12T07:44:06.178Z,4.17
2018-09-12T07:46:35.255Z,2.80
2018-09-12T07:49:04.265Z,2.90
2018-09-12T07:51:32.615Z,3.20
2018-09-12T07:54:00.980Z,4.47
2018-09-12T07:56:30.117Z,4.00
2018-09-12T07:58:58.304Z,3.27
2018-09-12T08:01:26.654Z,3.27
2018-09-12T08:03:55.012Z,3.20
2018-09-12T08:06:23.352Z,3.43
2018-09-12T08:08:51.772Z,3.80
2018-09-12T08:11:20.125Z,3.30
2018-09-12T08:13:48.460Z,3.03
2018-09-12T08:16:16.831Z,2.60
2018-09-12T08:18:45.155Z,3.20
2018-09-12T08:21:13.518Z,2.77
2018-09-12T08:23:41.887Z,3.47
2018-09-12T08:26:10.347Z,2.43
2018-09-12T08:28:38.741Z,2.33
2018-09-12T08:31:07.112Z,2.63
2018-09-12T08:33:35.470Z,2.80
2018-09-12T08:36:03.858Z,2.70
2018-09-12T08:38:32.207Z,2.87
2018-09-12T08:41:01.517Z,2.40
2018-09-12T08:43:29.869Z,3.13
2018-09-12T08:45:58.213Z,2.63
2018-09-12T08:48:26.594Z,2.73
2018-09-12T08:50:54.925Z,2.90
2018-09-12T08:53:23.303Z,3.20
2018-09-12T08:55:52.660Z,2.53
2018-09-12T08:58:21.000Z,2.53
2018-09-12T09:00:49.325Z,2.40
2018-09-12T09:03:17.631Z,3.17
2018-09-12T09:05:46.021Z,2.70
2018-09-12T09:08:14.986Z,2.80
2018-09-12T09:10:43.356Z,3.07
2018-09-12T09:13:11.696Z,3.30
2018-09-12T09:15:40.078Z,3.60
2018-09-12T09:18:08.419Z,3.67
2018-09-12T09:20:36.823Z,3.03
2018-09-12T09:23:05.187Z,3.03
2018-09-12T09:25:33.546Z,3.10
2018-09-12T09:28:01.907Z,2.80
2018-09-12T09:30:31.983Z,3.13
2018-09-12T09:33:00.352Z,2.73
2018-09-12T09:35:29.598Z,3.00
2018-09-12T09:37:57.744Z,3.13
2018-09-12T09:40:26.073Z,3.37
2018-09-12T09:42:54.456Z,3.20
2018-09-12T09:45:22.902Z,3.50
2018-09-12T09:47:51.279Z,3.50
2018-09-12T09:50:19.552Z,3.07
2018-09-12T09:55:22.716Z,3.40
2018-09-12T09:57:51.038Z,2.70
2018-09-12T10:00:24.675Z,2.67
2018-09-12T10:02:58.330Z,2.60
2018-09-12T10:05:32.099Z,2.57
2018-09-12T10:08:05.948Z,2.43
2018-09-12T10:10:34.308Z,2.93
2018-09-12T10:13:02.670Z,3.30
2018-09-12T10:15:31.003Z,2.50
2018-09-12T10:17:59.376Z,2.70
2018-09-12T10:20:27.728Z,2.70
2018-09-12T10:22:56.208Z,2.60
2018-09-12T10:25:24.534Z,3.10
2018-09-12T10:27:52.941Z,2.73
2018-09-12T10:30:21.275Z,2.33
2018-09-12T10:32:49.640Z,3.37
2018-09-12T10:35:18.773Z,2.80
2018-09-12T10:37:47.137Z,2.70
2018-09-12T10:40:15.472Z,2.80
2018-09-12T10:42:43.816Z,2.70
2018-09-12T10:45:12.155Z,2.77
2018-09-12T10:47:40.556Z,2.50
2018-09-12T10:50:08.944Z,2.27
2018-09-12T10:52:37.390Z,2.90
2018-09-12T10:55:05.784Z,3.23
2018-09-12T10:57:34.175Z,2.53
2018-09-12T11:00:02.564Z,2.43
2018-09-12T11:02:31.049Z,3.23
2018-09-12T11:04:59.387Z,2.70
2018-09-12T11:07:28.351Z,3.23
2018-09-12T11:09:56.732Z,3.07
2018-09-12T11:12:25.180Z,2.40
2018-09-12T11:14:53.569Z,2.43
2018-09-12T11:17:21.951Z,2.70
2018-09-12T11:19:50.324Z,3.13
2018-09-12T11:22:18.690Z,2.27
2018-09-12T11:24:47.302Z,3.00
2018-09-12T11:27:15.695Z,2.50
2018-09-12T11:29:44.092Z,2.73
2018-09-12T11:32:12.440Z,2.80
2018-09-12T11:34:41.480Z,2.93
2018-09-12T11:37:09.910Z,2.80
2018-09-12T11:39:38.330Z,2.17
2018-09-12T11:42:06.927Z,2.30
2018-09-12T11:44:35.398Z,2.33
2018-09-12T11:47:03.769Z,1.70
2018-09-12T11:49:32.157Z,2.33
2018-09-12T11:52:00.522Z,2.47
2018-09-12T11:54:29.231Z,2.80
2018-09-12T11:56:58.240Z,2.43
2018-09-12T11:59:26.671Z,2.47
2018-09-12T12:01:55.067Z,2.30
2018-09-12T12:04:23.398Z,3.10
2018-09-12T12:06:52.145Z,2.27
2018-09-12T12:09:20.566Z,2.03
2018-09-12T12:11:48.947Z,2.40
2018-09-12T12:14:17.307Z,2.20
2018-09-12T12:16:45.673Z,2.00
2018-09-12T12:19:14.016Z,2.03
2018-09-12T12:21:42.396Z,2.03
2018-09-12T12:24:10.795Z,2.67
2018-09-12T12:26:39.257Z,2.50
2018-09-12T12:29:07.602Z,2.20
2018-09-12T12:31:36.838Z,1.80
2018-09-12T12:34:05.254Z,2.00
2018-09-12T12:36:33.593Z,2.17
2018-09-12T12:39:01.973Z,2.13
2018-09-12T12:41:30.337Z,2.10
2018-09-12T12:43:58.884Z,2.30
2018-09-12T12:46:27.248Z,2.30
2018-09-12T12:48:55.620Z,2.27
2018-09-12T12:51:24.038Z,1.77
2018-09-12T12:53:52.555Z,2.27
2018-09-12T12:56:20.955Z,2.20
2018-09-12T12:58:49.352Z,2.47
2018-09-12T13:01:17.702Z,2.00
2018-09-12T13:03:46.179Z,2.20
2018-09-12T13:06:14.556Z,2.13
2018-09-12T13:08:43.530Z,2.07
2018-09-12T13:11:11.899Z,1.87
2018-09-12T13:13:40.231Z,2.20
2018-09-12T13:16:08.683Z,2.20
2018-09-12T13:18:37.263Z,2.13
2018-09-12T13:21:05.845Z,1.70
2018-09-12T13:23:34.187Z,1.83
2018-09-12T13:26:02.625Z,2.20
2018-09-12T13:28:31.010Z,1.80
2018-09-12T13:30:59.395Z,2.33
2018-09-12T13:33:27.826Z,1.47
2018-09-12T13:35:56.317Z,2.23
2018-09-12T13:38:24.692Z,2.70
2018-09-12T13:40:53.071Z,1.87
2018-09-12T13:43:21.484Z,1.73
2018-09-12T13:45:49.839Z,1.93
2018-09-12T13:48:18.225Z,1.50
2018-09-12T13:50:46.953Z,1.90
2018-09-12T13:53:15.385Z,2.60
2018-09-12T13:55:43.729Z,2.03
2018-09-12T13:58:12.152Z,2.07
2018-09-12T14:00:40.530Z,2.40
2018-09-12T14:03:08.923Z,2.00
2018-09-12T14:05:37.308Z,2.30
2018-09-12T14:08:05.803Z,2.20
2018-09-12T14:10:34.235Z,2.43
2018-09-12T14:13:02.636Z,2.00
2018-09-12T14:15:31.035Z,1.97
2018-09-12T14:17:59.435Z,1.77
2018-09-12T14:20:27.813Z,2.13
2018-09-12T14:22:56.841Z,2.00
2018-09-12T14:25:25.300Z,2.00
2018-09-12T14:27:54.248Z,1.83
2018-09-12T14:30:22.662Z,2.30
2018-09-12T14:32:51.079Z,1.47
2018-09-12T14:35:19.455Z,1.80
2018-09-12T14:37:47.844Z,1.97
2018-09-12T14:40:16.357Z,1.83
2018-09-12T14:42:44.799Z,1.93
2018-09-12T14:45:13.930Z,2.03
2018-09-12T14:47:42.288Z,1.87
2018-09-12T14:50:10.654Z,2.00
2018-09-12T14:52:39.831Z,2.23
2018-09-12T14:55:08.278Z,2.03
2018-09-12T14:57:36.717Z,2.47
2018-09-12T15:00:05.366Z,2.03
2018-09-12T15:02:33.808Z,2.47
2018-09-12T15:05:02.331Z,2.23
2018-09-12T15:07:30.846Z,1.90
2018-09-12T15:09:59.324Z,2.03
2018-09-12T15:12:27.708Z,2.20
2018-09-12T15:14:56.138Z,2.00
2018-09-12T15:17:24.537Z,2.00
2018-09-12T15:19:52.952Z,1.70
2018-09-12T15:22:21.350Z,2.07
2018-09-12T15:24:49.833Z,1.40
2018-09-12T15:27:18.208Z,2.13
2018-09-12T15:29:46.572Z,1.87
2018-09-12T15:32:15.015Z,1.77
2018-09-12T15:34:43.461Z,1.53
2018-09-12T15:37:11.913Z,1.53
2018-09-12T15:39:40.222Z,2.00
2018-09-12T15:42:08.586Z,1.60
2018-09-12T15:44:37.013Z,1.60
2018-09-12T15:47:05.986Z,2.13
2018-09-12T15:49:34.322Z,1.90
2018-09-12T15:52:02.771Z,1.90
2018-09-12T15:54:31.180Z,1.63
2018-09-12T15:56:59.676Z,2.23
2018-09-12T15:59:28.073Z,1.97
2018-09-12T16:01:56.527Z,1.60
2018-09-12T16:04:24.967Z,1.93
2018-09-12T16:06:53.305Z,1.40
2018-09-12T16:09:21.692Z,2.00
2018-09-12T16:11:50.242Z,1.90
2018-09-12T16:14:18.661Z,1.33
2018-09-12T16:16:47.062Z,2.40
2018-09-12T16:19:15.455Z,1.57
2018-09-12T16:21:43.876Z,1.87
2018-09-12T16:24:12.252Z,1.50
2018-09-12T16:26:41.583Z,2.13
2018-09-12T16:29:09.956Z,1.43
2018-09-12T16:31:38.348Z,1.63
2018-09-12T16:34:07.102Z,1.80
2018-09-12T16:36:35.583Z,1.80
2018-09-12T16:39:07.004Z,1.70
2018-09-12T16:41:35.448Z,1.43
2018-09-12T16:44:03.911Z,2.00
2018-09-12T16:46:32.374Z,1.40
2018-09-12T16:49:00.855Z,1.43
2018-09-12T16:51:29.320Z,1.47
2018-09-12T16:53:57.826Z,1.30
2018-09-12T16:56:26.330Z,1.30
2018-09-12T16:58:54.846Z,1.10
2018-09-12T17:01:23.308Z,1.47
2018-09-12T17:03:51.750Z,1.50
2018-09-12T17:06:20.536Z,1.30
2018-09-12T17:08:49.062Z,1.27
2018-09-12T17:11:17.541Z,1.40
2018-09-12T17:13:47.057Z,1.57
2018-09-12T17:16:15.543Z,1.50
2018-09-12T17:18:43.997Z,1.43
2018-09-12T17:21:12.562Z,1.57
2018-09-12T17:23:41.030Z,1.10
2018-09-12T17:26:10.126Z,1.70
2018-09-12T17:28:38.732Z,1.20
2018-09-12T17:31:07.201Z,0.97
2018-09-12T17:33:35.686Z,1.30
2018-09-12T17:36:04.239Z,1.13
2018-09-12T17:38:32.714Z,1.03
2018-09-12T17:41:01.130Z,1.30
2018-09-12T17:43:29.612Z,1.00
2018-09-12T17:45:58.234Z,1.60
2018-09-12T17:48:26.766Z,1.50
2018-09-12T17:50:55.911Z,1.20
2018-09-12T17:53:24.579Z,1.23
2018-09-12T17:55:53.221Z,1.50
2018-09-12T17:58:21.704Z,1.03
2018-09-12T18:00:50.275Z,1.40
2018-09-12T18:03:18.781Z,1.30
2018-09-12T18:05:47.954Z,0.90
2018-09-12T18:08:16.412Z,1.00
2018-09-12T18:10:45.154Z,1.60
2018-09-12T18:13:13.536Z,1.00
2018-09-12T18:15:42.035Z,1.27
2018-09-12T18:18:10.723Z,1.07
2018-09-12T18:20:39.188Z,1.20
2018-09-12T18:23:07.753Z,1.27
2018-09-12T18:25:36.220Z,0.83
2018-09-12T18:28:04.621Z,1.33
2018-09-12T18:30:33.253Z,0.90
2018-09-12T18:33:01.802Z,0.90
2018-09-12T18:35:30.259Z,1.10
2018-09-12T18:37:59.342Z,1.00
2018-09-12T18:40:27.881Z,0.93
2018-09-12T18:42:56.437Z,1.23
2018-09-12T18:45:24.747Z,0.90
2018-09-12T18:47:53.245Z,0.90
2018-09-12T18:50:21.732Z,1.23
2018-09-12T18:52:50.234Z,1.47
2018-09-12T18:55:19.382Z,1.03
2018-09-12T18:57:47.818Z,1.23
2018-09-12T19:00:16.294Z,1.30
2018-09-12T19:02:44.736Z,1.17
2018-09-12T19:05:13.193Z,1.23
2018-09-12T19:07:41.730Z,1.57
2018-09-12T19:10:10.302Z,1.10
2018-09-12T19:12:38.700Z,0.83
2018-09-12T19:15:07.108Z,1.07
2018-09-12T19:17:36.557Z,1.30
2018-09-12T19:20:05.037Z,1.00
2018-09-12T19:22:33.496Z,1.27
2018-09-12T19:25:01.976Z,1.17
2018-09-12T19:27:31.021Z,1.80
2018-09-12T19:30:00.440Z,1.90
2018-09-12T19:32:29.291Z,1.70
2018-09-12T19:34:57.715Z,1.43
2018-09-12T19:37:26.074Z,1.70
2018-09-12T19:39:54.468Z,1.73
2018-09-12T19:42:22.904Z,2.20
2018-09-12T19:44:51.284Z,2.50
2018-09-12T19:47:19.873Z,2.23
2018-09-12T19:49:48.344Z,2.20
2018-09-12T19:52:16.785Z,2.47
2018-09-12T19:54:45.980Z,2.57
2018-09-12T19:57:14.885Z,3.10
2018-09-12T19:59:43.277Z,2.23
2018-09-12T20:02:11.696Z,1.77
2018-09-12T20:04:40.093Z,2.13
2018-09-12T20:07:08.489Z,1.33
2018-09-12T20:09:37.020Z,2.33
2018-09-12T20:12:05.503Z,1.83
2018-09-12T20:14:34.744Z,1.63
2018-09-12T20:17:03.147Z,1.13
2018-09-12T20:19:31.941Z,0.90
2018-09-12T20:22:01.220Z,0.83
2018-09-12T20:24:29.702Z,1.10
2018-09-12T20:26:58.351Z,1.50
2018-09-12T20:29:26.827Z,1.40
2018-09-12T20:31:55.189Z,1.37
2018-09-12T20:34:23.567Z,1.50
2018-09-12T20:36:51.986Z,1.83
2018-09-12T20:39:21.074Z,2.07
2018-09-12T20:41:49.441Z,2.00
2018-09-12T20:44:17.790Z,2.20
2018-09-12T20:46:46.197Z,1.53
2018-09-12T20:49:14.634Z,1.10
2018-09-12T20:51:45.760Z,1.60
2018-09-12T20:54:15.807Z,1.43
2018-09-12T20:56:45.132Z,1.60
2018-09-12T21:01:48.336Z,1.13
2018-09-12T21:04:16.892Z,1.43
2018-09-12T21:06:45.261Z,1.30
2018-09-12T21:09:14.572Z,1.40
2018-09-12T21:11:42.923Z,1.90
2018-09-12T21:14:11.312Z,1.63
2018-09-12T21:16:39.692Z,1.63
2018-09-12T21:19:08.396Z,1.70
2018-09-12T21:21:36.832Z,1.40
2018-09-12T21:24:05.185Z,1.53
2018-09-12T21:26:33.642Z,1.43
2018-09-12T21:29:02.118Z,2.27
2018-09-12T21:31:30.519Z,1.70
2018-09-12T21:33:58.924Z,1.77
2018-09-12T21:36:27.284Z,2.00
2018-09-12T21:38:55.688Z,1.63
2018-09-12T21:41:24.843Z,1.50
2018-09-12T21:43:53.817Z,1.20
2018-09-12T21:46:22.871Z,2.17
2018-09-12T21:48:51.242Z,1.70
2018-09-12T21:51:19.631Z,2.03
2018-09-12T21:53:47.990Z,1.63
2018-09-12T21:56:16.389Z,2.43
2018-09-12T21:58:44.755Z,1.70
2018-09-12T22:01:13.128Z,2.20
2018-09-12T22:03:41.554Z,2.37
2018-09-12T22:06:09.904Z,2.97
2018-09-12T22:08:39.456Z,2.87
2018-09-12T22:11:07.952Z,2.63
2018-09-12T22:13:36.332Z,3.53
2018-09-12T22:16:04.805Z,2.63
2018-09-12T22:18:33.219Z,3.27
2018-09-12T22:21:01.633Z,3.87
2018-09-12T22:23:29.988Z,3.97
2018-09-12T22:25:58.940Z,3.73
2018-09-12T22:28:27.306Z,4.70
2018-09-12T22:30:55.660Z,5.50
2018-09-12T22:33:24.208Z,5.07
2018-09-12T22:35:52.591Z,6.00
2018-09-12T22:38:21.045Z,5.63
2018-09-12T22:40:49.463Z,5.47
2018-09-12T22:43:17.830Z,6.27
2018-09-12T22:45:46.208Z,5.97
2018-09-12T22:48:14.539Z,7.53
2018-09-12T22:50:42.897Z,6.63
2018-09-12T22:53:11.427Z,7.03
2018-09-12T22:55:39.833Z,6.63
2018-09-12T22:58:08.221Z,5.33
2018-09-12T23:00:36.581Z,6.77
2018-09-12T23:03:04.995Z,6.20
2018-09-12T23:05:33.380Z,5.97
2018-09-12T23:08:01.771Z,7.20
2018-09-12T23:10:30.141Z,5.53
2018-09-12T23:12:58.487Z,4.67
2018-09-12T23:15:26.863Z,6.07
2018-09-12T23:17:55.244Z,5.47
2018-09-12T23:20:23.719Z,3.93
2018-09-12T23:22:52.130Z,4.37
2018-09-12T23:25:20.632Z,5.23
2018-09-12T23:27:49.032Z,6.00
2018-09-12T23:30:17.413Z,5.70
2018-09-12T23:32:45.747Z,5.53
2018-09-12T23:35:14.183Z,5.93
2018-09-12T23:37:42.621Z,7.13
2018-09-12T23:40:11.085Z,7.07
2018-09-12T23:42:39.435Z,7.33
2018-09-12T23:45:07.815Z,7.10
2018-09-12T23:47:36.167Z,6.87
2018-09-12T23:50:04.792Z,8.80
2018-09-12T23:52:33.192Z,9.80
2018-09-12T23:55:01.565Z,11.50
2018-09-12T23:57:29.920Z,11.70
2018-09-12T23:59:58.474Z,10.00
